sensor_id;sensor_type;location;lat;lon;timestamp;temperature;humidity
770;DHT22;368;48.698;9.116;2022-12-07T00:00:01;3.10;99.90
770;DHT22;368;48.698;9.116;2022-12-07T00:02:27;3.20;99.90
770;DHT22;368;48.698;9.116;2022-12-07T00:04:54;3.10;99.90
770;DHT22;368;48.698;9.116;2022-12-07T00:07:21;3.20;99.90
770;DHT22;368;48.698;9.116;2022-12-07T00:09:49;3.20;99.90
770;DHT22;368;48.698;9.116;2022-12-07T00:12:16;3.40;99.90
770;DHT22;368;48.698;9.116;2022-12-07T00:14:43;3.10;99.90
770;DHT22;368;48.698;9.116;2022-12-07T00:17:09;3.10;99.90
770;DHT22;368;48.698;9.116;2022-12-07T00:19:36;3.20;99.90
770;DHT22;368;48.698;9.116;2022-12-07T00:22:03;3.10;99.90
770;DHT22;368;48.698;9.116;2022-12-07T00:24:30;3.30;99.90
770;DHT22;368;48.698;9.116;2022-12-07T00:26:58;3.10;99.90
770;DHT22;368;48.698;9.116;2022-12-07T00:29:24;3.20;99.90
770;DHT22;368;48.698;9.116;2022-12-07T00:31:51;3.00;99.90
770;DHT22;368;48.698;9.116;2022-12-07T00:34:20;3.00;99.90
770;DHT22;368;48.698;9.116;2022-12-07T00:36:47;3.00;99.90
770;DHT22;368;48.698;9.116;2022-12-07T00:39:14;3.00;99.90
770;DHT22;368;48.698;9.116;2022-12-07T00:41:41;3.20;99.90
770;DHT22;368;48.698;9.116;2022-12-07T00:44:09;3.40;99.90
770;DHT22;368;48.698;9.116;2022-12-07T00:46:36;3.30;99.90
770;DHT22;368;48.698;9.116;2022-12-07T00:49:03;3.10;99.90
770;DHT22;368;48.698;9.116;2022-12-07T00:51:30;3.30;99.90
770;DHT22;368;48.698;9.116;2022-12-07T00:53:56;3.20;99.90
770;DHT22;368;48.698;9.116;2022-12-07T00:56:25;3.30;99.90
770;DHT22;368;48.698;9.116;2022-12-07T00:58:53;3.30;99.90
770;DHT22;368;48.698;9.116;2022-12-07T01:01:23;3.30;99.90
770;DHT22;368;48.698;9.116;2022-12-07T01:03:50;3.30;99.90
770;DHT22;368;48.698;9.116;2022-12-07T01:06:18;3.30;99.90
770;DHT22;368;48.698;9.116;2022-12-07T01:08:45;3.20;99.90
770;DHT22;368;48.698;9.116;2022-12-07T01:11:14;3.10;99.90
770;DHT22;368;48.698;9.116;2022-12-07T01:13:42;3.30;99.90
770;DHT22;368;48.698;9.116;2022-12-07T01:16:11;3.00;99.90
770;DHT22;368;48.698;9.116;2022-12-07T01:18:39;3.00;99.90
770;DHT22;368;48.698;9.116;2022-12-07T01:21:09;3.10;99.90
770;DHT22;368;48.698;9.116;2022-12-07T01:23:37;3.20;99.90
770;DHT22;368;48.698;9.116;2022-12-07T01:26:06;3.10;99.90
770;DHT22;368;48.698;9.116;2022-12-07T01:28:34;2.90;99.90
770;DHT22;368;48.698;9.116;2022-12-07T01:31:03;2.90;99.90
770;DHT22;368;48.698;9.116;2022-12-07T01:33:32;3.10;99.90
770;DHT22;368;48.698;9.116;2022-12-07T01:36:04;2.90;99.90
770;DHT22;368;48.698;9.116;2022-12-07T01:38:32;3.20;99.90
770;DHT22;368;48.698;9.116;2022-12-07T01:41:00;3.40;99.90
770;DHT22;368;48.698;9.116;2022-12-07T01:43:30;3.30;99.90
770;DHT22;368;48.698;9.116;2022-12-07T01:45:57;3.10;99.90
770;DHT22;368;48.698;9.116;2022-12-07T01:48:27;3.10;99.90
770;DHT22;368;48.698;9.116;2022-12-07T01:50:56;2.90;99.90
770;DHT22;368;48.698;9.116;2022-12-07T01:53:29;2.90;99.90
770;DHT22;368;48.698;9.116;2022-12-07T01:55:58;2.90;99.90
770;DHT22;368;48.698;9.116;2022-12-07T01:58:26;3.10;99.90
770;DHT22;368;48.698;9.116;2022-12-07T02:00:52;2.90;99.90
770;DHT22;368;48.698;9.116;2022-12-07T02:03:24;2.90;99.90
770;DHT22;368;48.698;9.116;2022-12-07T02:05:53;3.00;99.90
770;DHT22;368;48.698;9.116;2022-12-07T02:08:21;3.10;99.90
770;DHT22;368;48.698;9.116;2022-12-07T02:10:49;2.80;99.90
770;DHT22;368;48.698;9.116;2022-12-07T02:13:20;2.80;99.90
770;DHT22;368;48.698;9.116;2022-12-07T02:16:06;2.60;99.90
770;DHT22;368;48.698;9.116;2022-12-07T02:18:48;2.80;99.90
770;DHT22;368;48.698;9.116;2022-12-07T02:21:27;2.90;99.90
770;DHT22;368;48.698;9.116;2022-12-07T02:24:10;2.90;99.90
770;DHT22;368;48.698;9.116;2022-12-07T02:27:19;2.60;99.90
770;DHT22;368;48.698;9.116;2022-12-07T02:29:58;2.90;99.90
770;DHT22;368;48.698;9.116;2022-12-07T02:32:29;2.70;99.90
770;DHT22;368;48.698;9.116;2022-12-07T02:35:02;2.80;99.90
770;DHT22;368;48.698;9.116;2022-12-07T02:37:36;2.50;99.90
770;DHT22;368;48.698;9.116;2022-12-07T02:40:09;2.60;99.90
770;DHT22;368;48.698;9.116;2022-12-07T02:42:40;2.80;99.90
770;DHT22;368;48.698;9.116;2022-12-07T02:45:10;2.80;99.90
770;DHT22;368;48.698;9.116;2022-12-07T02:47:39;2.80;99.90
770;DHT22;368;48.698;9.116;2022-12-07T02:50:07;2.60;99.90
770;DHT22;368;48.698;9.116;2022-12-07T02:52:34;2.80;99.90
770;DHT22;368;48.698;9.116;2022-12-07T02:55:02;2.80;99.90
770;DHT22;368;48.698;9.116;2022-12-07T02:57:42;2.90;99.90
770;DHT22;368;48.698;9.116;2022-12-07T03:00:15;2.80;99.90
770;DHT22;368;48.698;9.116;2022-12-07T03:02:53;2.60;99.90
770;DHT22;368;48.698;9.116;2022-12-07T03:05:49;2.50;99.90
770;DHT22;368;48.698;9.116;2022-12-07T03:08:24;2.60;99.90
770;DHT22;368;48.698;9.116;2022-12-07T03:10:56;2.80;99.90
770;DHT22;368;48.698;9.116;2022-12-07T03:13:28;2.70;99.90
770;DHT22;368;48.698;9.116;2022-12-07T03:16:02;3.00;99.90
770;DHT22;368;48.698;9.116;2022-12-07T03:18:36;2.90;99.90
770;DHT22;368;48.698;9.116;2022-12-07T03:21:10;3.00;99.90
770;DHT22;368;48.698;9.116;2022-12-07T03:23:39;2.90;99.90
770;DHT22;368;48.698;9.116;2022-12-07T03:26:10;2.80;99.90
770;DHT22;368;48.698;9.116;2022-12-07T03:28:40;2.60;99.90
770;DHT22;368;48.698;9.116;2022-12-07T03:31:13;2.70;99.90
770;DHT22;368;48.698;9.116;2022-12-07T03:33:44;2.90;99.90
770;DHT22;368;48.698;9.116;2022-12-07T03:36:17;2.70;99.90
770;DHT22;368;48.698;9.116;2022-12-07T03:38:49;2.70;99.90
770;DHT22;368;48.698;9.116;2022-12-07T03:41:19;2.40;99.90
770;DHT22;368;48.698;9.116;2022-12-07T03:43:49;2.70;99.90
770;DHT22;368;48.698;9.116;2022-12-07T03:46:23;2.60;99.90
770;DHT22;368;48.698;9.116;2022-12-07T03:48:57;2.70;99.90
770;DHT22;368;48.698;9.116;2022-12-07T03:51:30;2.70;99.90
770;DHT22;368;48.698;9.116;2022-12-07T03:54:09;2.40;99.90
770;DHT22;368;48.698;9.116;2022-12-07T03:56:37;2.30;99.90
770;DHT22;368;48.698;9.116;2022-12-07T03:59:05;2.40;99.90
770;DHT22;368;48.698;9.116;2022-12-07T04:01:34;2.40;99.90
770;DHT22;368;48.698;9.116;2022-12-07T04:04:01;2.50;99.90
770;DHT22;368;48.698;9.116;2022-12-07T04:06:28;2.60;99.90
770;DHT22;368;48.698;9.116;2022-12-07T04:08:54;2.70;99.90
770;DHT22;368;48.698;9.116;2022-12-07T04:11:21;2.40;99.90
770;DHT22;368;48.698;9.116;2022-12-07T04:13:48;2.50;99.90
770;DHT22;368;48.698;9.116;2022-12-07T04:16:33;2.90;99.90
770;DHT22;368;48.698;9.116;2022-12-07T04:19:00;2.70;99.90
770;DHT22;368;48.698;9.116;2022-12-07T04:21:27;2.50;99.90
770;DHT22;368;48.698;9.116;2022-12-07T04:23:54;2.30;99.90
770;DHT22;368;48.698;9.116;2022-12-07T04:26:20;2.40;99.90
770;DHT22;368;48.698;9.116;2022-12-07T04:28:47;2.70;99.90
770;DHT22;368;48.698;9.116;2022-12-07T04:31:14;2.30;99.90
770;DHT22;368;48.698;9.116;2022-12-07T04:33:42;2.50;99.90
770;DHT22;368;48.698;9.116;2022-12-07T04:36:09;2.50;99.90
770;DHT22;368;48.698;9.116;2022-12-07T04:38:36;2.50;99.90
770;DHT22;368;48.698;9.116;2022-12-07T04:41:05;2.40;99.90
770;DHT22;368;48.698;9.116;2022-12-07T04:43:32;2.70;99.90
770;DHT22;368;48.698;9.116;2022-12-07T04:45:59;2.20;99.90
770;DHT22;368;48.698;9.116;2022-12-07T04:48:26;2.60;99.90
770;DHT22;368;48.698;9.116;2022-12-07T04:50:54;2.30;99.90
770;DHT22;368;48.698;9.116;2022-12-07T04:53:21;2.30;99.90
770;DHT22;368;48.698;9.116;2022-12-07T04:55:48;2.20;99.90
770;DHT22;368;48.698;9.116;2022-12-07T04:58:15;2.50;99.90
770;DHT22;368;48.698;9.116;2022-12-07T05:00:41;2.30;99.90
770;DHT22;368;48.698;9.116;2022-12-07T05:03:08;2.60;99.90
770;DHT22;368;48.698;9.116;2022-12-07T05:05:35;2.40;99.90
770;DHT22;368;48.698;9.116;2022-12-07T05:08:03;2.40;99.90
770;DHT22;368;48.698;9.116;2022-12-07T05:10:30;2.40;99.90
770;DHT22;368;48.698;9.116;2022-12-07T05:12:57;2.60;99.90
770;DHT22;368;48.698;9.116;2022-12-07T05:15:24;2.50;99.90
770;DHT22;368;48.698;9.116;2022-12-07T05:17:50;2.20;99.90
770;DHT22;368;48.698;9.116;2022-12-07T05:20:18;2.30;99.90
770;DHT22;368;48.698;9.116;2022-12-07T05:22:44;1.90;99.90
770;DHT22;368;48.698;9.116;2022-12-07T05:25:12;2.00;99.90
770;DHT22;368;48.698;9.116;2022-12-07T05:27:39;2.00;99.90
770;DHT22;368;48.698;9.116;2022-12-07T05:30:07;2.30;99.90
770;DHT22;368;48.698;9.116;2022-12-07T05:32:34;1.90;99.90
770;DHT22;368;48.698;9.116;2022-12-07T05:35:01;1.90;99.90
770;DHT22;368;48.698;9.116;2022-12-07T05:37:27;2.20;99.90
770;DHT22;368;48.698;9.116;2022-12-07T05:39:54;2.10;99.90
770;DHT22;368;48.698;9.116;2022-12-07T05:42:22;1.90;99.90
770;DHT22;368;48.698;9.116;2022-12-07T05:44:49;1.70;99.90
770;DHT22;368;48.698;9.116;2022-12-07T05:47:16;1.50;99.90
770;DHT22;368;48.698;9.116;2022-12-07T05:49:43;1.40;99.90
770;DHT22;368;48.698;9.116;2022-12-07T05:52:10;1.40;99.90
770;DHT22;368;48.698;9.116;2022-12-07T05:54:36;1.60;99.90
770;DHT22;368;48.698;9.116;2022-12-07T05:57:03;1.40;99.90
770;DHT22;368;48.698;9.116;2022-12-07T05:59:31;1.20;99.90
770;DHT22;368;48.698;9.116;2022-12-07T06:01:59;1.40;99.90
770;DHT22;368;48.698;9.116;2022-12-07T06:04:28;1.20;99.90
770;DHT22;368;48.698;9.116;2022-12-07T06:06:55;1.10;99.90
770;DHT22;368;48.698;9.116;2022-12-07T06:09:23;0.80;99.90
770;DHT22;368;48.698;9.116;2022-12-07T06:11:50;0.80;99.90
770;DHT22;368;48.698;9.116;2022-12-07T06:14:36;0.90;99.90
770;DHT22;368;48.698;9.116;2022-12-07T06:17:03;0.80;99.90
770;DHT22;368;48.698;9.116;2022-12-07T06:19:30;0.70;99.90
770;DHT22;368;48.698;9.116;2022-12-07T06:21:57;0.70;99.90
770;DHT22;368;48.698;9.116;2022-12-07T06:24:24;0.70;99.90
770;DHT22;368;48.698;9.116;2022-12-07T06:26:51;1.00;99.90
770;DHT22;368;48.698;9.116;2022-12-07T06:29:18;0.70;99.90
770;DHT22;368;48.698;9.116;2022-12-07T06:31:46;0.90;99.90
770;DHT22;368;48.698;9.116;2022-12-07T06:34:15;0.80;99.90
770;DHT22;368;48.698;9.116;2022-12-07T06:36:42;1.10;99.90
770;DHT22;368;48.698;9.116;2022-12-07T06:39:10;1.20;99.90
770;DHT22;368;48.698;9.116;2022-12-07T06:41:37;1.40;99.90
770;DHT22;368;48.698;9.116;2022-12-07T06:44:04;1.30;99.90
770;DHT22;368;48.698;9.116;2022-12-07T06:46:31;1.20;99.90
770;DHT22;368;48.698;9.116;2022-12-07T06:49:00;1.10;99.90
770;DHT22;368;48.698;9.116;2022-12-07T06:51:26;1.40;99.90
770;DHT22;368;48.698;9.116;2022-12-07T06:53:53;1.50;99.90
770;DHT22;368;48.698;9.116;2022-12-07T06:56:20;1.40;99.90
770;DHT22;368;48.698;9.116;2022-12-07T06:58:48;1.50;99.90
770;DHT22;368;48.698;9.116;2022-12-07T07:01:17;1.60;99.90
770;DHT22;368;48.698;9.116;2022-12-07T07:03:45;1.30;99.90
770;DHT22;368;48.698;9.116;2022-12-07T07:06:13;1.40;99.90
770;DHT22;368;48.698;9.116;2022-12-07T07:08:41;1.50;99.90
770;DHT22;368;48.698;9.116;2022-12-07T07:11:08;2.00;99.90
770;DHT22;368;48.698;9.116;2022-12-07T07:13:35;1.60;99.90
770;DHT22;368;48.698;9.116;2022-12-07T07:16:03;1.60;99.90
770;DHT22;368;48.698;9.116;2022-12-07T07:18:29;1.60;99.90
770;DHT22;368;48.698;9.116;2022-12-07T07:20:56;1.60;99.90
770;DHT22;368;48.698;9.116;2022-12-07T07:23:25;1.70;99.90
770;DHT22;368;48.698;9.116;2022-12-07T07:25:52;1.70;99.90
770;DHT22;368;48.698;9.116;2022-12-07T07:28:18;1.60;99.90
770;DHT22;368;48.698;9.116;2022-12-07T07:30:45;1.70;99.90
770;DHT22;368;48.698;9.116;2022-12-07T07:33:12;1.60;99.90
770;DHT22;368;48.698;9.116;2022-12-07T07:35:39;1.60;99.90
770;DHT22;368;48.698;9.116;2022-12-07T07:38:06;2.00;99.90
770;DHT22;368;48.698;9.116;2022-12-07T07:40:35;1.70;99.90
770;DHT22;368;48.698;9.116;2022-12-07T07:43:02;1.80;99.90
770;DHT22;368;48.698;9.116;2022-12-07T07:45:29;1.80;99.90
770;DHT22;368;48.698;9.116;2022-12-07T07:47:55;1.60;99.90
770;DHT22;368;48.698;9.116;2022-12-07T07:50:22;1.90;99.90
770;DHT22;368;48.698;9.116;2022-12-07T07:52:50;1.70;99.90
770;DHT22;368;48.698;9.116;2022-12-07T07:55:17;1.90;99.90
770;DHT22;368;48.698;9.116;2022-12-07T07:57:45;2.10;99.90
770;DHT22;368;48.698;9.116;2022-12-07T08:00:13;2.10;99.90
770;DHT22;368;48.698;9.116;2022-12-07T08:02:41;2.10;99.90
770;DHT22;368;48.698;9.116;2022-12-07T08:05:10;2.40;99.90
770;DHT22;368;48.698;9.116;2022-12-07T08:07:37;2.30;99.90
770;DHT22;368;48.698;9.116;2022-12-07T08:10:05;2.10;99.90
770;DHT22;368;48.698;9.116;2022-12-07T08:12:35;2.30;99.90
770;DHT22;368;48.698;9.116;2022-12-07T08:15:04;2.00;99.90
770;DHT22;368;48.698;9.116;2022-12-07T08:17:31;2.40;99.90
770;DHT22;368;48.698;9.116;2022-12-07T08:19:59;2.20;99.90
770;DHT22;368;48.698;9.116;2022-12-07T08:22:26;2.30;99.90
770;DHT22;368;48.698;9.116;2022-12-07T08:24:52;2.30;99.90
770;DHT22;368;48.698;9.116;2022-12-07T08:27:19;2.70;99.90
770;DHT22;368;48.698;9.116;2022-12-07T08:29:46;2.60;99.90
770;DHT22;368;48.698;9.116;2022-12-07T08:32:14;2.70;99.90
770;DHT22;368;48.698;9.116;2022-12-07T08:34:41;2.70;99.90
770;DHT22;368;48.698;9.116;2022-12-07T08:37:08;2.90;99.90
770;DHT22;368;48.698;9.116;2022-12-07T08:39:34;3.00;99.90
770;DHT22;368;48.698;9.116;2022-12-07T08:42:01;3.00;99.90
770;DHT22;368;48.698;9.116;2022-12-07T08:44:28;3.00;99.90
770;DHT22;368;48.698;9.116;2022-12-07T08:46:59;2.80;99.90
770;DHT22;368;48.698;9.116;2022-12-07T08:49:32;3.00;99.90
770;DHT22;368;48.698;9.116;2022-12-07T08:52:01;3.00;99.90
770;DHT22;368;48.698;9.116;2022-12-07T08:54:30;3.00;99.90
770;DHT22;368;48.698;9.116;2022-12-07T08:56:57;3.20;99.90
770;DHT22;368;48.698;9.116;2022-12-07T08:59:24;3.50;99.90
770;DHT22;368;48.698;9.116;2022-12-07T09:01:52;3.60;99.90
770;DHT22;368;48.698;9.116;2022-12-07T09:04:18;3.50;99.90
770;DHT22;368;48.698;9.116;2022-12-07T09:06:48;3.50;99.90
770;DHT22;368;48.698;9.116;2022-12-07T09:09:15;3.40;99.90
770;DHT22;368;48.698;9.116;2022-12-07T09:11:42;3.20;99.90
770;DHT22;368;48.698;9.116;2022-12-07T09:14:10;3.50;99.90
770;DHT22;368;48.698;9.116;2022-12-07T09:16:38;3.90;99.90
770;DHT22;368;48.698;9.116;2022-12-07T09:19:04;3.60;99.90
770;DHT22;368;48.698;9.116;2022-12-07T09:21:32;3.60;99.90
770;DHT22;368;48.698;9.116;2022-12-07T09:24:00;3.80;99.90
770;DHT22;368;48.698;9.116;2022-12-07T09:26:27;4.10;99.90
770;DHT22;368;48.698;9.116;2022-12-07T09:28:54;4.10;99.90
770;DHT22;368;48.698;9.116;2022-12-07T09:31:20;3.70;99.90
770;DHT22;368;48.698;9.116;2022-12-07T09:33:53;3.80;99.90
770;DHT22;368;48.698;9.116;2022-12-07T09:36:20;4.00;99.90
770;DHT22;368;48.698;9.116;2022-12-07T09:38:47;3.90;99.90
770;DHT22;368;48.698;9.116;2022-12-07T09:41:15;4.00;99.90
770;DHT22;368;48.698;9.116;2022-12-07T09:43:42;4.00;99.90
770;DHT22;368;48.698;9.116;2022-12-07T09:46:13;3.80;99.90
770;DHT22;368;48.698;9.116;2022-12-07T09:48:42;4.00;99.90
770;DHT22;368;48.698;9.116;2022-12-07T09:51:15;4.30;99.90
770;DHT22;368;48.698;9.116;2022-12-07T09:53:43;4.20;99.90
770;DHT22;368;48.698;9.116;2022-12-07T09:56:12;4.00;99.90
770;DHT22;368;48.698;9.116;2022-12-07T09:58:42;4.40;99.90
770;DHT22;368;48.698;9.116;2022-12-07T10:01:12;4.40;99.90
770;DHT22;368;48.698;9.116;2022-12-07T10:03:42;4.50;99.90
770;DHT22;368;48.698;9.116;2022-12-07T10:06:12;4.50;99.90
770;DHT22;368;48.698;9.116;2022-12-07T10:08:39;4.80;99.90
770;DHT22;368;48.698;9.116;2022-12-07T10:11:07;5.00;99.90
770;DHT22;368;48.698;9.116;2022-12-07T10:13:37;4.80;99.90
770;DHT22;368;48.698;9.116;2022-12-07T10:16:06;4.80;99.90
770;DHT22;368;48.698;9.116;2022-12-07T10:18:35;4.80;99.90
770;DHT22;368;48.698;9.116;2022-12-07T10:21:08;4.90;99.90
770;DHT22;368;48.698;9.116;2022-12-07T10:23:37;4.90;99.90
770;DHT22;368;48.698;9.116;2022-12-07T10:26:21;5.00;99.90
770;DHT22;368;48.698;9.116;2022-12-07T10:28:48;5.00;99.90
770;DHT22;368;48.698;9.116;2022-12-07T10:31:19;5.20;99.90
770;DHT22;368;48.698;9.116;2022-12-07T10:33:50;5.20;99.90
770;DHT22;368;48.698;9.116;2022-12-07T10:36:23;5.30;99.90
770;DHT22;368;48.698;9.116;2022-12-07T10:38:52;5.10;99.90
770;DHT22;368;48.698;9.116;2022-12-07T10:41:19;5.00;99.90
770;DHT22;368;48.698;9.116;2022-12-07T10:43:51;4.80;99.90
770;DHT22;368;48.698;9.116;2022-12-07T10:49:54;4.60;99.90
770;DHT22;368;48.698;9.116;2022-12-07T10:52:47;4.80;99.90
770;DHT22;368;48.698;9.116;2022-12-07T10:55:22;4.70;99.90
770;DHT22;368;48.698;9.116;2022-12-07T11:01:02;4.70;99.90
770;DHT22;368;48.698;9.116;2022-12-07T11:03:41;4.70;99.90
770;DHT22;368;48.698;9.116;2022-12-07T11:06:20;4.80;99.90
770;DHT22;368;48.698;9.116;2022-12-07T11:09:00;4.70;99.90
770;DHT22;368;48.698;9.116;2022-12-07T11:11:34;4.90;99.90
770;DHT22;368;48.698;9.116;2022-12-07T11:14:09;5.00;99.90
770;DHT22;368;48.698;9.116;2022-12-07T11:16:55;4.80;99.90
770;DHT22;368;48.698;9.116;2022-12-07T11:19:43;4.90;99.90
770;DHT22;368;48.698;9.116;2022-12-07T11:22:20;5.20;99.90
770;DHT22;368;48.698;9.116;2022-12-07T11:24:56;5.00;99.90
770;DHT22;368;48.698;9.116;2022-12-07T11:27:30;5.20;99.90
770;DHT22;368;48.698;9.116;2022-12-07T11:30:10;5.20;99.90
770;DHT22;368;48.698;9.116;2022-12-07T11:32:55;5.00;99.90
770;DHT22;368;48.698;9.116;2022-12-07T11:35:31;4.80;99.90
770;DHT22;368;48.698;9.116;2022-12-07T11:38:03;4.80;99.90
770;DHT22;368;48.698;9.116;2022-12-07T11:40:35;5.10;99.90
770;DHT22;368;48.698;9.116;2022-12-07T11:43:09;4.90;99.90
770;DHT22;368;48.698;9.116;2022-12-07T11:45:42;5.20;99.90
770;DHT22;368;48.698;9.116;2022-12-07T11:48:15;5.00;99.90
770;DHT22;368;48.698;9.116;2022-12-07T11:50:47;5.20;99.90
770;DHT22;368;48.698;9.116;2022-12-07T11:53:18;5.10;99.90
770;DHT22;368;48.698;9.116;2022-12-07T11:55:49;5.10;99.90
770;DHT22;368;48.698;9.116;2022-12-07T11:58:38;5.10;99.90
770;DHT22;368;48.698;9.116;2022-12-07T12:01:14;5.10;99.90
770;DHT22;368;48.698;9.116;2022-12-07T12:03:45;5.30;99.90
770;DHT22;368;48.698;9.116;2022-12-07T12:06:14;5.20;99.90
770;DHT22;368;48.698;9.116;2022-12-07T12:08:45;5.60;99.90
770;DHT22;368;48.698;9.116;2022-12-07T12:11:25;5.40;99.90
770;DHT22;368;48.698;9.116;2022-12-07T12:14:30;5.50;99.90
770;DHT22;368;48.698;9.116;2022-12-07T12:17:22;5.60;99.90
770;DHT22;368;48.698;9.116;2022-12-07T12:20:03;5.70;99.90
770;DHT22;368;48.698;9.116;2022-12-07T12:22:37;5.60;99.90
770;DHT22;368;48.698;9.116;2022-12-07T12:25:13;5.80;99.90
770;DHT22;368;48.698;9.116;2022-12-07T12:27:46;5.50;99.90
770;DHT22;368;48.698;9.116;2022-12-07T12:30:26;5.70;99.90
770;DHT22;368;48.698;9.116;2022-12-07T12:33:05;5.60;99.90
770;DHT22;368;48.698;9.116;2022-12-07T12:35:35;5.40;99.90
770;DHT22;368;48.698;9.116;2022-12-07T12:38:27;5.10;99.90
770;DHT22;368;48.698;9.116;2022-12-07T12:40:54;5.40;99.90
770;DHT22;368;48.698;9.116;2022-12-07T12:43:44;5.60;99.90
770;DHT22;368;48.698;9.116;2022-12-07T12:46:37;5.60;99.90
770;DHT22;368;48.698;9.116;2022-12-07T12:55:21;5.40;99.90
770;DHT22;368;48.698;9.116;2022-12-07T13:03:56;5.50;99.90
770;DHT22;368;48.698;9.116;2022-12-07T13:06:35;5.30;99.90
770;DHT22;368;48.698;9.116;2022-12-07T13:09:03;5.30;99.90
770;DHT22;368;48.698;9.116;2022-12-07T13:11:36;5.30;99.90
770;DHT22;368;48.698;9.116;2022-12-07T13:14:40;5.30;99.90
770;DHT22;368;48.698;9.116;2022-12-07T13:17:08;5.50;99.90
770;DHT22;368;48.698;9.116;2022-12-07T13:19:57;5.20;99.90
770;DHT22;368;48.698;9.116;2022-12-07T13:22:53;5.10;99.90
770;DHT22;368;48.698;9.116;2022-12-07T13:25:34;5.20;99.90
770;DHT22;368;48.698;9.116;2022-12-07T13:28:11;5.10;99.90
770;DHT22;368;48.698;9.116;2022-12-07T13:30:54;4.90;99.90
770;DHT22;368;48.698;9.116;2022-12-07T13:33:28;4.90;99.90
770;DHT22;368;48.698;9.116;2022-12-07T13:35:55;5.10;99.90
770;DHT22;368;48.698;9.116;2022-12-07T13:38:28;5.20;99.90
770;DHT22;368;48.698;9.116;2022-12-07T13:41:13;5.20;99.90
770;DHT22;368;48.698;9.116;2022-12-07T13:43:48;4.80;99.90
770;DHT22;368;48.698;9.116;2022-12-07T13:46:15;5.10;99.90
770;DHT22;368;48.698;9.116;2022-12-07T13:48:46;5.40;99.90
770;DHT22;368;48.698;9.116;2022-12-07T13:51:19;5.30;99.90
770;DHT22;368;48.698;9.116;2022-12-07T13:53:47;5.60;99.90
770;DHT22;368;48.698;9.116;2022-12-07T13:56:14;5.40;99.90
770;DHT22;368;48.698;9.116;2022-12-07T13:58:41;5.10;99.90
770;DHT22;368;48.698;9.116;2022-12-07T14:01:09;5.20;99.90
770;DHT22;368;48.698;9.116;2022-12-07T14:03:36;5.40;99.90
770;DHT22;368;48.698;9.116;2022-12-07T14:06:19;5.20;99.90
770;DHT22;368;48.698;9.116;2022-12-07T14:08:47;5.20;99.90
770;DHT22;368;48.698;9.116;2022-12-07T14:11:17;5.00;99.90
770;DHT22;368;48.698;9.116;2022-12-07T14:13:59;5.20;99.90
770;DHT22;368;48.698;9.116;2022-12-07T14:16:29;5.00;99.90
770;DHT22;368;48.698;9.116;2022-12-07T14:18:58;5.20;99.90
770;DHT22;368;48.698;9.116;2022-12-07T14:21:27;4.80;99.90
770;DHT22;368;48.698;9.116;2022-12-07T14:24:16;5.10;99.90
770;DHT22;368;48.698;9.116;2022-12-07T14:26:44;5.00;99.90
770;DHT22;368;48.698;9.116;2022-12-07T14:29:32;4.90;99.90
770;DHT22;368;48.698;9.116;2022-12-07T14:32:22;5.00;99.90
770;DHT22;368;48.698;9.116;2022-12-07T14:35:00;4.90;99.90
770;DHT22;368;48.698;9.116;2022-12-07T14:37:28;4.70;99.90
770;DHT22;368;48.698;9.116;2022-12-07T14:39:55;4.70;99.90
770;DHT22;368;48.698;9.116;2022-12-07T14:42:25;4.50;99.90
770;DHT22;368;48.698;9.116;2022-12-07T14:44:53;4.50;99.90
770;DHT22;368;48.698;9.116;2022-12-07T14:47:21;4.50;99.90
770;DHT22;368;48.698;9.116;2022-12-07T14:49:48;4.40;99.90
770;DHT22;368;48.698;9.116;2022-12-07T14:52:17;4.40;99.90
770;DHT22;368;48.698;9.116;2022-12-07T14:54:44;4.60;99.90
770;DHT22;368;48.698;9.116;2022-12-07T14:57:11;4.60;99.90
770;DHT22;368;48.698;9.116;2022-12-07T14:59:38;4.50;99.90
770;DHT22;368;48.698;9.116;2022-12-07T15:02:05;4.60;99.90
770;DHT22;368;48.698;9.116;2022-12-07T15:04:33;4.60;99.90
770;DHT22;368;48.698;9.116;2022-12-07T15:07:02;4.50;99.90
770;DHT22;368;48.698;9.116;2022-12-07T15:09:30;4.50;99.90
770;DHT22;368;48.698;9.116;2022-12-07T15:11:56;4.40;99.90
770;DHT22;368;48.698;9.116;2022-12-07T15:14:23;4.60;99.90
770;DHT22;368;48.698;9.116;2022-12-07T15:16:50;4.60;99.90
770;DHT22;368;48.698;9.116;2022-12-07T15:19:18;4.70;99.90
770;DHT22;368;48.698;9.116;2022-12-07T15:21:46;4.90;99.90
770;DHT22;368;48.698;9.116;2022-12-07T15:24:13;4.50;99.90
770;DHT22;368;48.698;9.116;2022-12-07T15:26:40;4.60;99.90
770;DHT22;368;48.698;9.116;2022-12-07T15:29:08;4.50;99.90
770;DHT22;368;48.698;9.116;2022-12-07T15:31:35;4.30;99.90
770;DHT22;368;48.698;9.116;2022-12-07T15:34:02;4.40;99.90
770;DHT22;368;48.698;9.116;2022-12-07T15:36:31;4.20;99.90
770;DHT22;368;48.698;9.116;2022-12-07T15:39:00;4.30;99.90
770;DHT22;368;48.698;9.116;2022-12-07T15:41:27;4.20;99.90
770;DHT22;368;48.698;9.116;2022-12-07T15:43:54;4.20;99.90
770;DHT22;368;48.698;9.116;2022-12-07T15:46:39;4.10;99.90
770;DHT22;368;48.698;9.116;2022-12-07T15:49:11;4.00;99.90
770;DHT22;368;48.698;9.116;2022-12-07T15:51:38;4.10;99.90
770;DHT22;368;48.698;9.116;2022-12-07T15:54:06;4.00;99.90
770;DHT22;368;48.698;9.116;2022-12-07T15:56:33;3.90;99.90
770;DHT22;368;48.698;9.116;2022-12-07T15:59:00;4.10;99.90
770;DHT22;368;48.698;9.116;2022-12-07T16:01:27;4.00;99.90
770;DHT22;368;48.698;9.116;2022-12-07T16:03:53;3.90;99.90
770;DHT22;368;48.698;9.116;2022-12-07T16:06:20;3.90;99.90
770;DHT22;368;48.698;9.116;2022-12-07T16:08:47;4.10;99.90
770;DHT22;368;48.698;9.116;2022-12-07T16:11:15;4.10;99.90
770;DHT22;368;48.698;9.116;2022-12-07T16:13:42;4.00;99.90
770;DHT22;368;48.698;9.116;2022-12-07T16:16:12;4.10;99.90
770;DHT22;368;48.698;9.116;2022-12-07T16:18:39;4.20;99.90
770;DHT22;368;48.698;9.116;2022-12-07T16:21:06;4.10;99.90
770;DHT22;368;48.698;9.116;2022-12-07T16:23:33;3.70;99.90
770;DHT22;368;48.698;9.116;2022-12-07T16:26:05;3.40;99.90
770;DHT22;368;48.698;9.116;2022-12-07T16:28:33;3.70;99.90
770;DHT22;368;48.698;9.116;2022-12-07T16:31:05;3.70;99.90
770;DHT22;368;48.698;9.116;2022-12-07T16:33:34;3.80;99.90
770;DHT22;368;48.698;9.116;2022-12-07T16:36:02;3.80;99.90
770;DHT22;368;48.698;9.116;2022-12-07T16:38:30;3.90;99.90
770;DHT22;368;48.698;9.116;2022-12-07T16:40:57;3.70;99.90
770;DHT22;368;48.698;9.116;2022-12-07T16:43:24;3.60;99.90
770;DHT22;368;48.698;9.116;2022-12-07T16:45:52;3.40;99.90
770;DHT22;368;48.698;9.116;2022-12-07T16:48:19;3.80;99.90
770;DHT22;368;48.698;9.116;2022-12-07T16:50:46;3.40;99.90
770;DHT22;368;48.698;9.116;2022-12-07T16:53:14;3.70;99.90
770;DHT22;368;48.698;9.116;2022-12-07T16:55:43;3.30;99.90
770;DHT22;368;48.698;9.116;2022-12-07T16:58:10;3.40;99.90
770;DHT22;368;48.698;9.116;2022-12-07T17:00:37;3.50;99.90
770;DHT22;368;48.698;9.116;2022-12-07T17:03:05;3.40;99.90
770;DHT22;368;48.698;9.116;2022-12-07T17:05:33;3.40;99.90
770;DHT22;368;48.698;9.116;2022-12-07T17:08:01;3.30;99.90
770;DHT22;368;48.698;9.116;2022-12-07T17:10:28;3.30;99.90
770;DHT22;368;48.698;9.116;2022-12-07T17:12:55;3.30;99.90
770;DHT22;368;48.698;9.116;2022-12-07T17:15:22;3.50;99.90
770;DHT22;368;48.698;9.116;2022-12-07T17:17:52;3.30;99.90
770;DHT22;368;48.698;9.116;2022-12-07T17:20:22;3.20;99.90
770;DHT22;368;48.698;9.116;2022-12-07T17:22:49;3.40;99.90
770;DHT22;368;48.698;9.116;2022-12-07T17:25:16;3.00;99.90
770;DHT22;368;48.698;9.116;2022-12-07T17:27:44;2.80;99.90
770;DHT22;368;48.698;9.116;2022-12-07T17:30:12;3.00;99.90